sensor_id;sensor_type;location;lat;lon;timestamp;pressure;altitude;pressure_sealevel;temperature;humidity
9439;BME280;5176;42.622;25.386;2022-12-07T00:01:57;97319.25;;;8.47;100.00
9439;BME280;5176;42.622;25.386;2022-12-07T00:04:24;97346.25;;;8.63;100.00
9439;BME280;5176;42.622;25.386;2022-12-07T00:06:53;97286.59;;;8.23;100.00
9439;BME280;5176;42.622;25.386;2022-12-07T00:09:21;97309.59;;;8.32;100.00
9439;BME280;5176;42.622;25.386;2022-12-07T00:11:49;97323.22;;;8.38;100.00
9439;BME280;5176;42.622;25.386;2022-12-07T00:14:17;97318.09;;;8.37;100.00
9439;BME280;5176;42.622;25.386;2022-12-07T00:16:45;97347.16;;;8.46;100.00
9439;BME280;5176;42.622;25.386;2022-12-07T00:19:15;97323.41;;;8.34;100.00
9439;BME280;5176;42.622;25.386;2022-12-07T00:21:43;97309.09;;;8.25;100.00
9439;BME280;5176;42.622;25.386;2022-12-07T00:24:11;97332.66;;;8.41;100.00
9439;BME280;5176;42.622;25.386;2022-12-07T00:26:40;97307.50;;;8.23;100.00
9439;BME280;5176;42.622;25.386;2022-12-07T00:29:12;97337.88;;;8.41;100.00
9439;BME280;5176;42.622;25.386;2022-12-07T00:31:41;97349.25;;;8.40;100.00
9439;BME280;5176;42.622;25.386;2022-12-07T00:34:13;97346.53;;;8.41;100.00
9439;BME280;5176;42.622;25.386;2022-12-07T00:36:40;97344.03;;;8.40;100.00
9439;BME280;5176;42.622;25.386;2022-12-07T00:39:07;97339.72;;;8.39;100.00
9439;BME280;5176;42.622;25.386;2022-12-07T00:41:36;97307.50;;;8.23;100.00
9439;BME280;5176;42.622;25.386;2022-12-07T00:44:04;97339.81;;;8.37;100.00
9439;BME280;5176;42.622;25.386;2022-12-07T00:46:31;97337.31;;;8.34;100.00
9439;BME280;5176;42.622;25.386;2022-12-07T00:48:58;97305.78;;;8.06;100.00
9439;BME280;5176;42.622;25.386;2022-12-07T00:51:26;97338.34;;;8.32;100.00
9439;BME280;5176;42.622;25.386;2022-12-07T00:53:53;97309.59;;;8.16;100.00
9439;BME280;5176;42.622;25.386;2022-12-07T00:56:22;97309.66;;;8.14;100.00
9439;BME280;5176;42.622;25.386;2022-12-07T00:58:53;97305.44;;;8.12;100.00
9439;BME280;5176;42.622;25.386;2022-12-07T01:01:21;97305.28;;;8.15;100.00
9439;BME280;5176;42.622;25.386;2022-12-07T01:03:49;97296.06;;;8.08;100.00
9439;BME280;5176;42.622;25.386;2022-12-07T01:06:17;97290.72;;;8.11;100.00
9439;BME280;5176;42.622;25.386;2022-12-07T01:08:45;97325.28;;;8.32;100.00
9439;BME280;5176;42.622;25.386;2022-12-07T01:11:13;97313.31;;;8.28;100.00
9439;BME280;5176;42.622;25.386;2022-12-07T01:13:41;97300.88;;;8.15;100.00
9439;BME280;5176;42.622;25.386;2022-12-07T01:16:12;97290.09;;;8.06;100.00
9439;BME280;5176;42.622;25.386;2022-12-07T01:18:40;97290.09;;;8.06;100.00
9439;BME280;5176;42.622;25.386;2022-12-07T01:21:09;97321.72;;;8.17;100.00
9439;BME280;5176;42.622;25.386;2022-12-07T01:23:39;97299.72;;;8.05;100.00
9439;BME280;5176;42.622;25.386;2022-12-07T01:26:10;97320.38;;;8.26;100.00
9439;BME280;5176;42.622;25.386;2022-12-07T01:28:38;97283.53;;;7.99;100.00
9439;BME280;5176;42.622;25.386;2022-12-07T01:31:07;97288.66;;;8.00;100.00
9439;BME280;5176;42.622;25.386;2022-12-07T01:33:37;97274.16;;;7.95;100.00
9439;BME280;5176;42.622;25.386;2022-12-07T01:36:06;97276.94;;;7.91;100.00
9439;BME280;5176;42.622;25.386;2022-12-07T01:38:33;97290.59;;;7.97;99.80
9439;BME280;5176;42.622;25.386;2022-12-07T01:41:02;97261.91;;;7.79;100.00
9439;BME280;5176;42.622;25.386;2022-12-07T01:43:31;97278.63;;;7.92;100.00
9439;BME280;5176;42.622;25.386;2022-12-07T01:45:59;97296.41;;;8.02;100.00
9439;BME280;5176;42.622;25.386;2022-12-07T01:48:28;97273.63;;;7.88;100.00
9439;BME280;5176;42.622;25.386;2022-12-07T01:51:02;97273.31;;;7.94;100.00
9439;BME280;5176;42.622;25.386;2022-12-07T01:53:32;97277.09;;;7.88;100.00
9439;BME280;5176;42.622;25.386;2022-12-07T01:56:01;97259.00;;;7.85;100.00
9439;BME280;5176;42.622;25.386;2022-12-07T01:58:29;97244.06;;;7.72;100.00
9439;BME280;5176;42.622;25.386;2022-12-07T02:00:56;97282.50;;;8.01;100.00
9439;BME280;5176;42.622;25.386;2022-12-07T02:03:29;97283.63;;;7.97;100.00
9439;BME280;5176;42.622;25.386;2022-12-07T02:05:58;97258.47;;;7.79;100.00
9439;BME280;5176;42.622;25.386;2022-12-07T02:08:27;97256.38;;;7.85;100.00
9439;BME280;5176;42.622;25.386;2022-12-07T02:10:55;97248.44;;;7.71;100.00
9439;BME280;5176;42.622;25.386;2022-12-07T02:13:26;97258.78;;;7.73;100.00
9439;BME280;5176;42.622;25.386;2022-12-07T02:16:08;97277.25;;;7.85;100.00
9439;BME280;5176;42.622;25.386;2022-12-07T02:18:47;97274.81;;;7.82;100.00
9439;BME280;5176;42.622;25.386;2022-12-07T02:21:22;97258.66;;;7.58;100.00
9439;BME280;5176;42.622;25.386;2022-12-07T02:24:15;97255.22;;;7.58;100.00
9439;BME280;5176;42.622;25.386;2022-12-07T02:27:20;97239.66;;;7.39;100.00
9439;BME280;5176;42.622;25.386;2022-12-07T02:29:58;97245.09;;;7.52;100.00
9439;BME280;5176;42.622;25.386;2022-12-07T02:32:34;97266.69;;;7.71;100.00
9439;BME280;5176;42.622;25.386;2022-12-07T02:35:06;97234.25;;;7.59;100.00
9439;BME280;5176;42.622;25.386;2022-12-07T02:37:39;97267.00;;;7.82;100.00
9439;BME280;5176;42.622;25.386;2022-12-07T02:40:11;97230.41;;;7.67;100.00
9439;BME280;5176;42.622;25.386;2022-12-07T02:42:43;97259.75;;;7.87;100.00
9439;BME280;5176;42.622;25.386;2022-12-07T02:45:17;97235.53;;;7.68;100.00
9439;BME280;5176;42.622;25.386;2022-12-07T02:47:48;97237.06;;;7.72;100.00
9439;BME280;5176;42.622;25.386;2022-12-07T02:50:19;97257.13;;;7.87;100.00
9439;BME280;5176;42.622;25.386;2022-12-07T02:52:46;97215.84;;;7.62;100.00
9439;BME280;5176;42.622;25.386;2022-12-07T02:55:15;97248.03;;;7.79;100.00
9439;BME280;5176;42.622;25.386;2022-12-07T02:57:56;97225.28;;;7.65;100.00
9439;BME280;5176;42.622;25.386;2022-12-07T03:00:31;97255.84;;;7.79;100.00
9439;BME280;5176;42.622;25.386;2022-12-07T03:03:10;97256.59;;;7.81;100.00
9439;BME280;5176;42.622;25.386;2022-12-07T03:05:58;97241.75;;;7.65;100.00
9439;BME280;5176;42.622;25.386;2022-12-07T03:08:43;97255.78;;;7.80;100.00
9439;BME280;5176;42.622;25.386;2022-12-07T03:11:13;97250.88;;;7.74;100.00
9439;BME280;5176;42.622;25.386;2022-12-07T03:13:48;97231.41;;;7.64;100.00
9439;BME280;5176;42.622;25.386;2022-12-07T03:16:22;97230.19;;;7.54;100.00
9439;BME280;5176;42.622;25.386;2022-12-07T03:18:53;97255.41;;;7.71;100.00
9439;BME280;5176;42.622;25.386;2022-12-07T03:21:25;97254.72;;;7.67;100.00
9439;BME280;5176;42.622;25.386;2022-12-07T03:23:57;97237.19;;;7.53;100.00
9439;BME280;5176;42.622;25.386;2022-12-07T03:26:31;97257.25;;;7.69;100.00
9439;BME280;5176;42.622;25.386;2022-12-07T03:29:05;97236.78;;;7.61;100.00
9439;BME280;5176;42.622;25.386;2022-12-07T03:31:38;97234.47;;;7.55;100.00
9439;BME280;5176;42.622;25.386;2022-12-07T03:34:11;97261.91;;;7.79;100.00
9439;BME280;5176;42.622;25.386;2022-12-07T03:36:44;97215.88;;;7.45;100.00
9439;BME280;5176;42.622;25.386;2022-12-07T03:39:19;97251.13;;;7.70;100.00
9439;BME280;5176;42.622;25.386;2022-12-07T03:41:50;97233.50;;;7.57;100.00
9439;BME280;5176;42.622;25.386;2022-12-07T03:44:18;97236.41;;;7.51;100.00
9439;BME280;5176;42.622;25.386;2022-12-07T03:46:52;97253.25;;;7.79;100.00
9439;BME280;5176;42.622;25.386;2022-12-07T03:49:26;97250.63;;;7.79;100.00
9439;BME280;5176;42.622;25.386;2022-12-07T03:51:59;97243.13;;;7.73;100.00
9439;BME280;5176;42.622;25.386;2022-12-07T03:54:32;97225.47;;;7.45;100.00
9439;BME280;5176;42.622;25.386;2022-12-07T03:57:02;97237.25;;;7.52;100.00
9439;BME280;5176;42.622;25.386;2022-12-07T03:59:31;97215.94;;;7.44;100.00
9439;BME280;5176;42.622;25.386;2022-12-07T04:02:05;97210.34;;;7.34;100.00
9439;BME280;5176;42.622;25.386;2022-12-07T04:04:33;97215.34;;;7.38;100.00
9439;BME280;5176;42.622;25.386;2022-12-07T04:07:01;97211.81;;;7.40;100.00
9439;BME280;5176;42.622;25.386;2022-12-07T04:09:28;97225.69;;;7.57;100.00
9439;BME280;5176;42.622;25.386;2022-12-07T04:11:55;97224.00;;;7.56;100.00
9439;BME280;5176;42.622;25.386;2022-12-07T04:14:23;97249.63;;;7.81;100.00
9439;BME280;5176;42.622;25.386;2022-12-07T04:16:52;97218.38;;;7.64;100.00
9439;BME280;5176;42.622;25.386;2022-12-07T04:19:22;97222.13;;;7.58;100.00
9439;BME280;5176;42.622;25.386;2022-12-07T04:21:50;97219.75;;;7.54;100.00
9439;BME280;5176;42.622;25.386;2022-12-07T04:24:18;97229.25;;;7.55;100.00
9439;BME280;5176;42.622;25.386;2022-12-07T04:26:46;97179.31;;;7.29;100.00
9439;BME280;5176;42.622;25.386;2022-12-07T04:29:14;97217.44;;;7.65;100.00
9439;BME280;5176;42.622;25.386;2022-12-07T04:31:42;97221.50;;;7.71;100.00
9439;BME280;5176;42.622;25.386;2022-12-07T04:34:10;97194.78;;;7.50;100.00
9439;BME280;5176;42.622;25.386;2022-12-07T04:36:39;97223.19;;;7.72;100.00
9439;BME280;5176;42.622;25.386;2022-12-07T04:39:08;97178.34;;;7.48;100.00
9439;BME280;5176;42.622;25.386;2022-12-07T04:41:37;97212.03;;;7.68;100.00
9439;BME280;5176;42.622;25.386;2022-12-07T04:44:04;97169.59;;;7.49;100.00
9439;BME280;5176;42.622;25.386;2022-12-07T04:46:34;97188.84;;;7.63;100.00
9439;BME280;5176;42.622;25.386;2022-12-07T04:49:01;97215.50;;;7.69;100.00
9439;BME280;5176;42.622;25.386;2022-12-07T04:51:29;97211.91;;;7.71;100.00
9439;BME280;5176;42.622;25.386;2022-12-07T04:53:58;97225.66;;;7.90;100.00
9439;BME280;5176;42.622;25.386;2022-12-07T04:56:25;97184.88;;;7.56;100.00
9439;BME280;5176;42.622;25.386;2022-12-07T04:58:54;97204.00;;;7.73;100.00
9439;BME280;5176;42.622;25.386;2022-12-07T05:01:22;97235.25;;;7.90;99.62
9439;BME280;5176;42.622;25.386;2022-12-07T05:03:50;97235.19;;;7.91;99.42
9439;BME280;5176;42.622;25.386;2022-12-07T05:06:17;97236.94;;;7.91;100.00
9439;BME280;5176;42.622;25.386;2022-12-07T05:08:45;97231.53;;;7.78;100.00
9439;BME280;5176;42.622;25.386;2022-12-07T05:11:14;97241.97;;;7.78;100.00
9439;BME280;5176;42.622;25.386;2022-12-07T05:13:55;97235.69;;;7.82;100.00
9439;BME280;5176;42.622;25.386;2022-12-07T05:16:23;97224.53;;;7.79;100.00
9439;BME280;5176;42.622;25.386;2022-12-07T05:18:50;97237.34;;;7.83;100.00
9439;BME280;5176;42.622;25.386;2022-12-07T05:21:18;97222.94;;;7.76;100.00
9439;BME280;5176;42.622;25.386;2022-12-07T05:23:46;97195.75;;;7.47;100.00
9439;BME280;5176;42.622;25.386;2022-12-07T05:26:15;97239.97;;;7.83;100.00
9439;BME280;5176;42.622;25.386;2022-12-07T05:28:43;97235.31;;;7.88;100.00
9439;BME280;5176;42.622;25.386;2022-12-07T05:31:10;97238.63;;;7.92;100.00
9439;BME280;5176;42.622;25.386;2022-12-07T05:33:37;97232.56;;;7.91;100.00
9439;BME280;5176;42.622;25.386;2022-12-07T05:36:05;97234.25;;;7.92;100.00
9439;BME280;5176;42.622;25.386;2022-12-07T05:38:33;97230.28;;;7.85;100.00
9439;BME280;5176;42.622;25.386;2022-12-07T05:41:01;97230.50;;;7.81;100.00
9439;BME280;5176;42.622;25.386;2022-12-07T05:43:30;97239.88;;;7.85;100.00
9439;BME280;5176;42.622;25.386;2022-12-07T05:45:58;97243.94;;;7.90;100.00
9439;BME280;5176;42.622;25.386;2022-12-07T05:48:26;97244.69;;;7.92;100.00
9439;BME280;5176;42.622;25.386;2022-12-07T05:50:53;97235.25;;;7.90;100.00
9439;BME280;5176;42.622;25.386;2022-12-07T05:53:21;97249.06;;;7.92;100.00
9439;BME280;5176;42.622;25.386;2022-12-07T05:55:49;97249.16;;;7.90;100.00
9439;BME280;5176;42.622;25.386;2022-12-07T05:58:16;97262.13;;;7.92;100.00
9439;BME280;5176;42.622;25.386;2022-12-07T06:01:01;97250.97;;;7.88;100.00
9439;BME280;5176;42.622;25.386;2022-12-07T06:03:29;97257.44;;;7.81;100.00
9439;BME280;5176;42.622;25.386;2022-12-07T06:05:56;97257.31;;;7.67;100.00
9439;BME280;5176;42.622;25.386;2022-12-07T06:08:23;97256.97;;;7.57;100.00
9439;BME280;5176;42.622;25.386;2022-12-07T06:10:51;97257.97;;;7.55;100.00
9439;BME280;5176;42.622;25.386;2022-12-07T06:13:38;97249.81;;;7.61;100.00
9439;BME280;5176;42.622;25.386;2022-12-07T06:16:06;97251.19;;;7.68;100.00
9439;BME280;5176;42.622;25.386;2022-12-07T06:18:34;97251.03;;;7.71;100.00
9439;BME280;5176;42.622;25.386;2022-12-07T06:21:01;97250.13;;;7.72;100.00
9439;BME280;5176;42.622;25.386;2022-12-07T06:23:29;97261.31;;;7.74;100.00
9439;BME280;5176;42.622;25.386;2022-12-07T06:25:56;97259.53;;;7.75;100.00
9439;BME280;5176;42.622;25.386;2022-12-07T06:28:24;97262.00;;;7.78;100.00
9439;BME280;5176;42.622;25.386;2022-12-07T06:30:57;97260.84;;;7.83;100.00
9439;BME280;5176;42.622;25.386;2022-12-07T06:33:27;97257.31;;;7.84;100.00
9439;BME280;5176;42.622;25.386;2022-12-07T06:35:55;97225.50;;;7.60;100.00
9439;BME280;5176;42.622;25.386;2022-12-07T06:38:23;97251.78;;;7.73;100.00
9439;BME280;5176;42.622;25.386;2022-12-07T06:40:50;97261.88;;;7.63;100.00
9439;BME280;5176;42.622;25.386;2022-12-07T06:43:18;97254.69;;;7.51;100.00
9439;BME280;5176;42.622;25.386;2022-12-07T06:45:45;97263.56;;;7.47;100.00
9439;BME280;5176;42.622;25.386;2022-12-07T06:48:12;97260.50;;;7.39;100.00
9439;BME280;5176;42.622;25.386;2022-12-07T06:50:43;97256.00;;;7.43;100.00
9439;BME280;5176;42.622;25.386;2022-12-07T06:53:11;97254.16;;;7.45;100.00
9439;BME280;5176;42.622;25.386;2022-12-07T06:55:40;97253.97;;;7.48;100.00
9439;BME280;5176;42.622;25.386;2022-12-07T06:58:08;97253.53;;;7.57;100.00
9439;BME280;5176;42.622;25.386;2022-12-07T11:56:50;97078.50;;;10.51;83.13
9439;BME280;5176;42.622;25.386;2022-12-07T11:59:25;97074.63;;;10.70;82.70
9439;BME280;5176;42.622;25.386;2022-12-07T12:02:00;97074.78;;;10.94;81.83
9439;BME280;5176;42.622;25.386;2022-12-07T12:04:45;97075.19;;;11.13;80.61
9439;BME280;5176;42.622;25.386;2022-12-07T12:07:18;97078.41;;;11.42;77.46
9439;BME280;5176;42.622;25.386;2022-12-07T12:09:50;97081.13;;;11.66;75.54
9439;BME280;5176;42.622;25.386;2022-12-07T12:12:45;97075.22;;;11.75;71.93
9439;BME280;5176;42.622;25.386;2022-12-07T12:15:32;97073.31;;;11.90;72.03
9439;BME280;5176;42.622;25.386;2022-12-07T12:18:31;97065.34;;;11.79;69.71
9439;BME280;5176;42.622;25.386;2022-12-07T12:21:06;97070.91;;;11.87;70.56
9439;BME280;5176;42.622;25.386;2022-12-07T12:23:40;97071.38;;;12.05;70.92
9439;BME280;5176;42.622;25.386;2022-12-07T12:26:16;97069.75;;;12.15;71.59
9439;BME280;5176;42.622;25.386;2022-12-07T12:28:53;97059.81;;;12.07;69.33
9439;BME280;5176;42.622;25.386;2022-12-07T12:31:38;97047.13;;;12.01;69.75
9439;BME280;5176;42.622;25.386;2022-12-07T12:34:29;97062.19;;;12.10;67.52
9439;BME280;5176;42.622;25.386;2022-12-07T12:36:57;97061.75;;;12.16;69.64
9439;BME280;5176;42.622;25.386;2022-12-07T12:39:25;97047.00;;;12.03;68.93
9439;BME280;5176;42.622;25.386;2022-12-07T12:41:57;97065.34;;;12.15;67.79
9439;BME280;5176;42.622;25.386;2022-12-07T12:45:17;97064.81;;;12.10;68.18
9439;BME280;5176;42.622;25.386;2022-12-07T12:48:02;97067.69;;;12.07;69.32
9439;BME280;5176;42.622;25.386;2022-12-07T12:50:32;97066.84;;;12.07;68.92
9439;BME280;5176;42.622;25.386;2022-12-07T12:53:15;97064.94;;;12.09;69.41
9439;BME280;5176;42.622;25.386;2022-12-07T12:56:10;97059.81;;;12.07;68.99
9439;BME280;5176;42.622;25.386;2022-12-07T12:58:42;97069.31;;;12.21;70.98
9439;BME280;5176;42.622;25.386;2022-12-07T13:10:23;97066.56;;;12.22;69.23
9439;BME280;5176;42.622;25.386;2022-12-07T13:12:57;97068.72;;;12.17;68.17
9439;BME280;5176;42.622;25.386;2022-12-07T13:15:32;97066.47;;;12.24;69.34
9439;BME280;5176;42.622;25.386;2022-12-07T13:18:02;97062.06;;;12.24;69.87
9439;BME280;5176;42.622;25.386;2022-12-07T13:20:56;97064.78;;;12.23;67.69
9439;BME280;5176;42.622;25.386;2022-12-07T13:23:31;97064.25;;;12.31;68.35
9439;BME280;5176;42.622;25.386;2022-12-07T13:26:12;97067.69;;;12.31;68.25
9439;BME280;5176;42.622;25.386;2022-12-07T13:28:42;97043.75;;;12.23;70.50
9439;BME280;5176;42.622;25.386;2022-12-07T13:31:22;97060.41;;;12.35;70.70
9439;BME280;5176;42.622;25.386;2022-12-07T13:33:51;97064.50;;;12.39;70.84
9439;BME280;5176;42.622;25.386;2022-12-07T13:36:22;97070.72;;;12.38;71.67
9439;BME280;5176;42.622;25.386;2022-12-07T13:38:53;97061.09;;;12.25;72.06
9439;BME280;5176;42.622;25.386;2022-12-07T13:41:22;97063.50;;;12.28;71.73
9439;BME280;5176;42.622;25.386;2022-12-07T13:43:52;97055.91;;;12.13;68.52
9439;BME280;5176;42.622;25.386;2022-12-07T13:46:28;97058.84;;;12.08;69.23
9439;BME280;5176;42.622;25.386;2022-12-07T13:48:57;97064.75;;;12.12;71.00
9439;BME280;5176;42.622;25.386;2022-12-07T13:51:27;97055.06;;;12.12;72.28
9439;BME280;5176;42.622;25.386;2022-12-07T13:53:58;97044.88;;;12.08;71.99
9439;BME280;5176;42.622;25.386;2022-12-07T13:56:31;97059.47;;;12.12;72.90
9439;BME280;5176;42.622;25.386;2022-12-07T13:59:00;97063.53;;;12.16;72.45
9439;BME280;5176;42.622;25.386;2022-12-07T14:01:30;97060.59;;;12.20;73.08
9439;BME280;5176;42.622;25.386;2022-12-07T14:04:19;97055.56;;;12.17;72.98
9439;BME280;5176;42.622;25.386;2022-12-07T14:06:50;97067.84;;;12.17;74.03
9439;BME280;5176;42.622;25.386;2022-12-07T14:09:19;97061.28;;;12.11;74.45
9439;BME280;5176;42.622;25.386;2022-12-07T14:11:49;97062.28;;;11.97;73.21
9439;BME280;5176;42.622;25.386;2022-12-07T14:14:19;97058.41;;;11.90;72.50
9439;BME280;5176;42.622;25.386;2022-12-07T14:16:56;97062.41;;;11.83;71.53
9439;BME280;5176;42.622;25.386;2022-12-07T14:19:45;97067.78;;;11.82;72.59
9439;BME280;5176;42.622;25.386;2022-12-07T14:22:23;97065.03;;;11.83;74.71
9439;BME280;5176;42.622;25.386;2022-12-07T14:24:51;97057.25;;;11.82;74.89
9439;BME280;5176;42.622;25.386;2022-12-07T14:27:29;97059.88;;;11.82;75.01
9439;BME280;5176;42.622;25.386;2022-12-07T14:30:00;97047.72;;;11.81;75.64
9439;BME280;5176;42.622;25.386;2022-12-07T14:32:30;97054.63;;;11.82;76.61
9439;BME280;5176;42.622;25.386;2022-12-07T14:35:00;97061.34;;;11.86;77.05
9439;BME280;5176;42.622;25.386;2022-12-07T14:37:30;97047.50;;;11.84;77.87
9439;BME280;5176;42.622;25.386;2022-12-07T14:39:58;97050.97;;;11.84;77.62
9439;BME280;5176;42.622;25.386;2022-12-07T14:42:28;97056.44;;;11.81;78.51
9439;BME280;5176;42.622;25.386;2022-12-07T14:44:58;97056.63;;;11.78;79.14
9439;BME280;5176;42.622;25.386;2022-12-07T14:47:26;97044.25;;;11.67;78.73
9439;BME280;5176;42.622;25.386;2022-12-07T14:49:54;97032.22;;;11.52;79.72
9439;BME280;5176;42.622;25.386;2022-12-07T14:52:24;97031.19;;;11.42;79.87
9439;BME280;5176;42.622;25.386;2022-12-07T14:54:56;97025.88;;;11.31;80.16
9439;BME280;5176;42.622;25.386;2022-12-07T14:57:25;97028.56;;;11.29;81.08
9439;BME280;5176;42.622;25.386;2022-12-07T14:59:53;97032.25;;;11.27;81.73
9439;BME280;5176;42.622;25.386;2022-12-07T15:02:20;97045.06;;;11.31;82.55
9439;BME280;5176;42.622;25.386;2022-12-07T15:04:48;97038.16;;;11.17;83.05
9439;BME280;5176;42.622;25.386;2022-12-07T15:07:19;97045.38;;;11.14;83.00
9439;BME280;5176;42.622;25.386;2022-12-07T15:09:48;97055.34;;;11.22;83.55
9439;BME280;5176;42.622;25.386;2022-12-07T15:12:17;97026.09;;;10.89;83.67
9439;BME280;5176;42.622;25.386;2022-12-07T15:14:45;97052.97;;;11.06;84.44
9439;BME280;5176;42.622;25.386;2022-12-07T15:17:14;97040.91;;;10.90;84.15
9439;BME280;5176;42.622;25.386;2022-12-07T15:19:41;97065.44;;;11.02;84.49
9439;BME280;5176;42.622;25.386;2022-12-07T15:22:09;97055.47;;;10.95;84.92
9439;BME280;5176;42.622;25.386;2022-12-07T15:24:37;97029.47;;;10.79;84.63
9439;BME280;5176;42.622;25.386;2022-12-07T15:27:05;97051.69;;;10.86;84.64
9439;BME280;5176;42.622;25.386;2022-12-07T15:29:36;97045.06;;;10.68;85.28
9439;BME280;5176;42.622;25.386;2022-12-07T15:32:04;97050.31;;;10.68;85.37
9439;BME280;5176;42.622;25.386;2022-12-07T15:34:31;97050.50;;;10.52;85.00
9439;BME280;5176;42.622;25.386;2022-12-07T15:37:00;97041.47;;;10.43;85.42
9439;BME280;5176;42.622;25.386;2022-12-07T15:39:27;97071.47;;;10.52;86.04
9439;BME280;5176;42.622;25.386;2022-12-07T15:41:55;97061.94;;;10.51;85.41
9439;BME280;5176;42.622;25.386;2022-12-07T15:44:23;97060.94;;;10.39;85.61
9439;BME280;5176;42.622;25.386;2022-12-07T15:47:09;97062.00;;;10.36;86.03
9439;BME280;5176;42.622;25.386;2022-12-07T15:49:36;97068.66;;;10.28;85.84
9439;BME280;5176;42.622;25.386;2022-12-07T15:52:04;97053.19;;;10.10;86.50
9439;BME280;5176;42.622;25.386;2022-12-07T15:54:32;97051.34;;;9.98;87.62
9439;BME280;5176;42.622;25.386;2022-12-07T15:56:59;97053.41;;;9.93;88.03
9439;BME280;5176;42.622;25.386;2022-12-07T15:59:27;97046.69;;;9.89;88.16
9439;BME280;5176;42.622;25.386;2022-12-07T16:01:56;97075.56;;;10.02;89.10
9439;BME280;5176;42.622;25.386;2022-12-07T16:04:26;97077.44;;;10.00;88.52
9439;BME280;5176;42.622;25.386;2022-12-07T16:06:56;97077.16;;;10.04;88.36
9439;BME280;5176;42.622;25.386;2022-12-07T16:09:24;97080.44;;;9.94;88.85
9439;BME280;5176;42.622;25.386;2022-12-07T16:11:52;97084.09;;;9.91;89.27
9439;BME280;5176;42.622;25.386;2022-12-07T16:14:20;97074.97;;;9.84;88.55
9439;BME280;5176;42.622;25.386;2022-12-07T16:16:48;97090.38;;;9.89;89.36
9439;BME280;5176;42.622;25.386;2022-12-07T16:19:17;97097.31;;;9.75;89.24
9439;BME280;5176;42.622;25.386;2022-12-07T16:21:48;97098.09;;;9.63;89.24
9439;BME280;5176;42.622;25.386;2022-12-07T16:24:15;97102.28;;;9.66;88.97
9439;BME280;5176;42.622;25.386;2022-12-07T16:26:44;97093.41;;;9.54;88.82
9439;BME280;5176;42.622;25.386;2022-12-07T16:29:12;97091.63;;;9.54;89.05
9439;BME280;5176;42.622;25.386;2022-12-07T16:31:40;97097.81;;;9.53;89.14
9439;BME280;5176;42.622;25.386;2022-12-07T16:34:09;97094.94;;;9.44;88.88
9439;BME280;5176;42.622;25.386;2022-12-07T16:36:37;97106.59;;;9.38;89.54
9439;BME280;5176;42.622;25.386;2022-12-07T16:39:06;97093.22;;;9.28;89.81
9439;BME280;5176;42.622;25.386;2022-12-07T16:41:34;97079.59;;;9.09;90.30
9439;BME280;5176;42.622;25.386;2022-12-07T16:44:03;97094.38;;;9.24;90.36
9439;BME280;5176;42.622;25.386;2022-12-07T16:46:31;97110.22;;;9.21;90.02
9439;BME280;5176;42.622;25.386;2022-12-07T16:48:59;97112.31;;;9.16;91.15
9439;BME280;5176;42.622;25.386;2022-12-07T16:51:27;97094.78;;;8.88;91.42
9439;BME280;5176;42.622;25.386;2022-12-07T16:53:55;97106.00;;;8.90;92.95
9439;BME280;5176;42.622;25.386;2022-12-07T16:56:24;97088.69;;;8.73;92.85
9439;BME280;5176;42.622;25.386;2022-12-07T16:58:52;97091.31;;;8.73;92.81
9439;BME280;5176;42.622;25.386;2022-12-07T17:01:21;97120.19;;;8.86;92.94
9439;BME280;5176;42.622;25.386;2022-12-07T17:03:50;97100.75;;;8.76;92.64
9439;BME280;5176;42.622;25.386;2022-12-07T17:06:19;97116.47;;;8.90;91.95
9439;BME280;5176;42.622;25.386;2022-12-07T17:08:47;97130.03;;;8.97;91.82
9439;BME280;5176;42.622;25.386;2022-12-07T17:11:18;97122.06;;;8.84;91.54
9439;BME280;5176;42.622;25.386;2022-12-07T17:13:47;97107.69;;;8.61;91.03
9439;BME280;5176;42.622;25.386;2022-12-07T17:16:32;97146.69;;;8.80;92.24
9439;BME280;5176;42.622;25.386;2022-12-07T17:19:03;97107.97;;;8.57;91.54
9439;BME280;5176;42.622;25.386;2022-12-07T17:21:31;97127.66;;;8.62;90.64
9439;BME280;5176;42.622;25.386;2022-12-07T17:24:03;97146.63;;;8.66;91.48
9439;BME280;5176;42.622;25.386;2022-12-07T17:26:31;97147.47;;;8.66;91.34
9439;BME280;5176;42.622;25.386;2022-12-07T17:29:01;97143.19;;;8.65;91.59
9439;BME280;5176;42.622;25.386;2022-12-07T17:31:28;97143.28;;;8.64;91.07
9439;BME280;5176;42.622;25.386;2022-12-07T17:33:56;97142.50;;;8.62;90.67
9439;BME280;5176;42.622;25.386;2022-12-07T17:36:25;97138.41;;;8.58;91.33
9439;BME280;5176;42.622;25.386;2022-12-07T17:38:53;97146.34;;;8.56;90.71
9439;BME280;5176;42.622;25.386;2022-12-07T17:41:22;97147.44;;;8.52;91.33
9439;BME280;5176;42.622;25.386;2022-12-07T17:44:11;97135.91;;;8.40;92.07
9439;BME280;5176;42.622;25.386;2022-12-07T17:46:39;97134.63;;;8.32;91.64
9439;BME280;5176;42.622;25.386;2022-12-07T17:49:07;97151.97;;;8.33;91.03
9439;BME280;5176;42.622;25.386;2022-12-07T17:51:35;97143.81;;;8.23;90.65
9439;BME280;5176;42.622;25.386;2022-12-07T17:54:19;97161.09;;;8.26;91.38
9439;BME280;5176;42.622;25.386;2022-12-07T17:56:47;97155.34;;;8.19;91.59
9439;BME280;5176;42.622;25.386;2022-12-07T17:59:16;97164.78;;;8.22;90.40
9439;BME280;5176;42.622;25.386;2022-12-07T18:01:45;97134.63;;;8.00;91.09
9439;BME280;5176;42.622;25.386;2022-12-07T18:04:12;97155.03;;;8.09;91.33
9439;BME280;5176;42.622;25.386;2022-12-07T18:06:40;97152.06;;;8.00;92.16
9439;BME280;5176;42.622;25.386;2022-12-07T18:09:08;97164.47;;;7.96;92.72
9439;BME280;5176;42.622;25.386;2022-12-07T18:11:37;97137.81;;;7.74;92.72
9439;BME280;5176;42.622;25.386;2022-12-07T18:14:05;97123.94;;;7.57;93.17
9439;BME280;5176;42.622;25.386;2022-12-07T18:16:35;97156.19;;;7.88;95.25
9439;BME280;5176;42.622;25.386;2022-12-07T18:19:04;97129.50;;;7.67;96.43
9439;BME280;5176;42.622;25.386;2022-12-07T18:21:34;97157.22;;;7.85;97.21
9439;BME280;5176;42.622;25.386;2022-12-07T18:24:03;97133.22;;;7.63;96.46
9439;BME280;5176;42.622;25.386;2022-12-07T18:26:32;97125.53;;;7.60;96.41
9439;BME280;5176;42.622;25.386;2022-12-07T18:29:00;97120.03;;;7.49;96.58
9439;BME280;5176;42.622;25.386;2022-12-07T18:31:28;97136.56;;;7.49;97.40
9439;BME280;5176;42.622;25.386;2022-12-07T18:33:59;97140.06;;;7.48;97.88
9439;BME280;5176;42.622;25.386;2022-12-07T18:36:28;97136.47;;;7.51;98.16
9439;BME280;5176;42.622;25.386;2022-12-07T18:38:57;97157.84;;;7.57;97.53